x

9410840 - Santa Monica Pier (icac1) Weather Station

10:54am - Tue 24th Jan 2017 All times are PST. -8 hours from GMT.

  • Wind
    5mph, 6mph gusts
  • Sea Temp 58°f
  • Air Temp 52°f
  • Sea Pressure 1017.6mb
  • 9410840 - Santa Monica Pier
  • 9410840 - Santa Monica Pier

More Historic Weather Station data

Upgrade to MSW Pro to gain access to the past 30 days of data for over 8000 Wavebouys and Weather Stations around the globe.

Join Pro

Comparision Forecast

View Surf forecast
   
Tue 01/24 10:54am 5 6 mph 1017.6mb 58f 52f
10:48am 5 6 mph 1017.6mb 58f 52f
10:42am 3 5 mph 1017.7mb 58f 52f
10:36am 6 7 mph 1017.7mb 57f 53f
10:30am 5 6 mph 1017.7mb 58f 53f
10:24am 6 8 mph 1017.7mb 57f 52f
10:18am 6 9 mph 1017.7mb 57f 52f
10:12am 5 9 mph 1017.6mb 57f 52f
10:06am 7 10 mph 1017.6mb 57f 51f
10:00am 8 10 mph 1017.5mb 57f 51f
9:54am 7 11 mph 1017.5mb 58f 50f
9:48am 7 8 mph 1017.5mb 58f 51f
9:42am 6 9 mph 1017.4mb 57f 51f
9:36am 7 9 mph 1017.3mb 57f 51f
9:30am 7 8 mph 1017.3mb 57f 50f
9:24am 5 8 mph 1017.3mb 57f 50f
9:18am 6 8 mph 1017.1mb 57f 50f
9:12am 6 9 mph 1017.1mb 58f 49f
9:06am 6 8 mph 1017mb 58f 49f
9:00am 7 9 mph 1016.9mb 58f 49f
8:54am 6 9 mph 1016.9mb 58f 49f
8:48am 6 8 mph 1016.8mb 58f 48f
8:42am 5 8 mph 1016.7mb 58f 48f
8:36am 7 8 mph 1016.7mb 57f 48f
8:30am 6 7 mph 1016.6mb 57f 47f
8:24am 6 7 mph 1016.6mb 58f 47f
8:18am 5 7 mph 1016.5mb 57f 46f
8:12am 6 7 mph 1016.4mb 57f 46f
8:06am 5 7 mph 1016.4mb 57f 46f
8:00am 6 7 mph 1016.3mb 58f 45f
7:54am 6 8 mph 1016.3mb 58f 45f
7:48am 6 8 mph 1016.3mb 58f -
7:42am 6 8 mph 1016.2mb 58f 44f
7:36am 6 7 mph 1016.1mb 58f 44f
7:30am 6 8 mph 1016.1mb 58f 44f
7:24am 8 10 mph 1016mb 57f 44f
7:18am 6 8 mph 1016mb 57f 44f
7:12am 5 7 mph 1015.9mb 57f 44f
7:06am 6 7 mph 1015.8mb 57f 44f
7:00am 3 6 mph 1015.8mb 57f 44f
6:54am 1 5 mph 1015.7mb 57f 44f
6:48am 2 5 mph 1015.7mb 57f 44f
6:42am 3 5 mph 1015.7mb - -
6:36am 5 7 mph 1015.6mb 57f 44f
6:30am 2 5 mph 1015.5mb 57f 43f
6:24am 2 6 mph 1015.4mb 57f 43f
6:18am 2 5 mph 1015.4mb 57f 44f
6:12am 3 6 mph 1015.4mb 57f 43f
6:06am 5 7 mph 1015.4mb 57f 43f
6:00am 6 7 mph 1015.3mb 57f 43f
5:54am 6 7 mph 1015.2mb 57f 43f
5:48am 5 6 mph 1015.2mb 58f 44f
5:42am 5
mph
1015.1mb 58f 44f
5:36am 3 5 mph 1015mb 58f 44f
5:30am 5 6 mph 1014.9mb 57f 44f
5:24am 3 5 mph 1014.9mb 57f 44f
5:18am 5
mph
1014.8mb 57f 44f
5:12am 3 5 mph 1014.8mb 57f 44f
5:06am 2 3 mph 1014.7mb 57f 44f
5:00am 2 6 mph 1014.6mb 57f 44f
4:54am 5 6 mph 1014.6mb 57f 45f
4:48am 5 7 mph 1014.5mb 57f 45f
4:42am 3 6 mph 1014.5mb 57f 45f
4:36am 3 7 mph 1014.5mb 57f 45f
4:30am 5 7 mph 1014.5mb 57f 45f
4:24am 5 6 mph 1014.5mb 57f 45f
4:18am 3 5 mph 1014.4mb 57f 45f
4:12am 5 8 mph 1014.3mb 57f 45f
4:06am 5 7 mph 1014.3mb 57f 45f
4:00am 5 7 mph 1014.4mb 58f 45f
3:54am 5 7 mph 1014.3mb 58f 45f
3:48am 6 8 mph 1014.4mb 58f -
3:42am 7 8 mph 1014.4mb 58f 45f
3:36am 6 7 mph 1014.5mb 58f 44f
3:30am 7 8 mph 1014.5mb 58f 44f
3:24am 5 7 mph 1014.4mb 58f 45f
3:18am 6 7 mph 1014.4mb 58f 45f
3:12am 5 6 mph 1014.4mb 58f 45f
3:06am 3 7 mph 1014.4mb 58f 46f
3:00am 5 7 mph 1014.4mb 58f 46f
2:54am 3 6 mph 1014.4mb 58f 47f
2:48am 6
mph
1014.4mb 58f 47f
2:42am 5 6 mph 1014.4mb 58f 47f
2:36am 6 7 mph 1014.3mb 57f 47f
2:30am 7 8 mph 1014.4mb 57f 47f
2:24am 2 6 mph 1014.3mb 57f 47f
2:18am 3 6 mph 1014.3mb 57f 47f
2:12am 3 5 mph 1014.2mb 58f 47f
2:06am 3 5 mph 1014.1mb 58f 47f
2:00am 2 8 mph 1014mb 58f 47f
1:54am 7 11 mph 1013.9mb 58f 46f
1:48am 3 5 mph 1013.8mb 57f 48f
1:42am 3 6 mph 1013.8mb 57f 49f
1:36am 5 6 mph 1013.7mb 57f 48f
1:30am 3 5 mph 1013.8mb 57f 48f
1:24am 2 3 mph 1013.8mb 57f 48f
1:18am 2
mph
1013.8mb 58f 48f
1:12am 1 2 mph 1013.8mb 58f 49f
1:06am 2 3 mph 1013.7mb 57f 49f
1:00am 3 6 mph 1013.7mb 57f 49f
12:54am 3 5 mph 1013.7mb 58f 49f
12:48am 5
mph
1013.6mb 58f 49f
12:42am  -  2 mph 1013.6mb 58f 48f
12:36am 2 3 mph 1013.6mb 58f 49f
12:30am  -  2 mph 1013.6mb 58f 49f
12:24am 2 3 mph 1013.6mb 58f 48f
12:18am 2 3 mph 1013.5mb 58f 48f
12:12am 2 3 mph 1013.5mb 58f 48f
12:06am 2 3 mph 1013.5mb 58f 48f
12:00am 3 5 mph 1013.4mb 57f 49f
Mon 01/23 11:54pm 2 5 mph 1013.4mb 58f 49f
11:48pm 3 6 mph 1013.4mb 58f 49f
11:42pm 6 7 mph 1013.3mb 58f 49f
11:36pm 6 7 mph 1013.3mb 58f 49f
11:30pm 2 6 mph 1013.3mb 58f 49f
11:24pm 5 7 mph 1013.3mb 58f 49f
11:18pm 3 5 mph 1013.4mb 58f 49f
11:12pm 1 3 mph 1013.3mb 58f 49f
11:06pm 2 3 mph 1013.3mb 58f 49f
11:00pm 2 3 mph 1013.4mb 58f 49f
10:54pm  -  5 mph 1013.3mb 58f 49f
10:48pm 3 6 mph 1013.2mb 58f 49f
10:42pm 5 7 mph 1013.1mb 58f -
10:36pm 6 7 mph 1013.2mb 57f -
10:30pm 5 7 mph 1013.1mb 57f 49f
10:24pm 6 8 mph 1013.1mb 57f 49f
10:18pm 5 8 mph 1013.1mb 58f 49f
10:12pm 7 8 mph 1013mb 58f 49f
10:06pm 7 8 mph 1012.9mb 57f 49f
10:00pm 7 9 mph 1012.8mb 57f 49f
9:54pm 7 9 mph 1012.8mb 58f 50f
9:48pm 7 8 mph 1012.7mb 57f 50f
9:42pm 6 8 mph 1012.6mb 57f 50f
9:36pm 5 7 mph 1012.6mb 57f 51f
9:30pm 6 9 mph 1012.6mb 57f 51f
9:24pm 6 11 mph 1012.5mb 57f 51f
9:18pm 10 11 mph 1012.4mb 57f 51f
9:12pm 8 10 mph 1012.3mb 57f 51f
9:06pm 7 10 mph 1012.3mb 57f 51f
9:00pm 8 10 mph 1012.2mb 57f 51f
8:54pm 8 10 mph 1012.2mb 57f 51f
8:48pm 10 11 mph 1012.2mb 57f 51f
8:42pm 10 13 mph 1012mb 57f 51f
8:36pm 9 14 mph 1012mb 57f 51f
8:30pm 10 15 mph 1012mb 57f 51f
8:24pm 11 16 mph 1012mb 57f 51f
8:18pm 9 11 mph 1012mb 57f 51f
8:12pm 8 10 mph 1011.9mb 57f 51f
8:06pm 8 10 mph 1011.8mb 57f 51f
8:00pm 8 11 mph 1011.8mb 57f 51f
7:54pm 8 13 mph 1011.8mb 57f 51f
7:48pm 9 11 mph 1011.9mb 57f 51f
7:42pm 6 8 mph 1011.9mb 57f 51f
7:36pm 8 10 mph 1011.8mb 57f 51f
7:30pm 6 8 mph 1011.7mb 57f 52f
7:24pm 6 8 mph 1011.6mb 57f 52f
7:18pm 6 9 mph 1011.4mb 57f 52f
7:12pm 7 9 mph 1011.3mb 57f 52f
7:06pm 7 9 mph 1011.3mb 57f 52f
7:00pm 8 9 mph 1011.4mb 57f 52f
6:54pm 8 10 mph 1011.4mb 57f 52f
6:48pm 9 11 mph 1011.2mb 57f 53f
6:42pm 8 10 mph 1011.2mb 57f 53f
6:36pm 7 9 mph 1011.2mb 57f 53f
6:30pm 7 9 mph 1011.2mb 57f 53f
6:24pm 7 9 mph 1011.2mb 57f 53f
6:18pm 7 9 mph 1011.2mb 57f 53f
6:12pm 6 8 mph 1011.1mb 57f 53f
6:06pm 8 15 mph 1011mb 57f 53f
6:00pm 13 14 mph 1011.1mb 57f 54f
5:54pm 13 16 mph 1011.1mb 57f 54f
5:48pm 13 16 mph 1011.1mb 57f 54f
5:42pm 14 16 mph 1011mb 57f 54f
5:36pm 13 15 mph 1010.9mb 57f 54f
5:30pm 10 13 mph 1010.9mb 57f -
5:24pm 13 16 mph 1010.9mb 57f 54f
5:18pm 16 17 mph 1010.9mb 57f 54f
5:12pm 16 18 mph 1011mb 57f 54f
5:06pm 16 21 mph 1011mb 57f 54f
5:00pm 20 21 mph 1010.9mb - -
4:54pm 17 20 mph 1010.9mb 57f 54f
4:48pm 17 21 mph - - -
4:42pm 20 22 mph 1010.9mb 57f 54f
4:36pm 21 23 mph 1010.9mb 57f 54f
4:30pm 22 25 mph 1010.8mb - -
4:24pm 23 26 mph 1010.7mb 57f 54f
4:18pm 23 28 mph 1010.5mb 57f 54f
4:12pm 23 29 mph 1010.5mb 57f 54f
4:06pm 25 30 mph 1010.4mb 57f 54f
4:00pm 25 28 mph 1010.4mb 57f -
3:54pm 24 28 mph 1010.2mb 57f 53f
3:48pm 25 28 mph 1010.2mb 57f 53f
3:42pm 25 29 mph 1010.3mb 57f 53f
3:36pm 25 29 mph 1010.3mb 57f 53f
3:30pm 24 29 mph 1010.3mb 57f 53f
3:24pm 24 30 mph 1010.4mb 57f 53f
3:18pm 26 29 mph 1010.4mb 57f -
3:12pm 24 26 mph 1010.4mb 57f 53f
3:06pm 24 25 mph 1010.4mb 57f 53f
3:00pm 22 25 mph 1010.3mb 57f -
2:54pm 24 28 mph 1010.3mb 57f 53f
2:48pm 22 25 mph - - -
2:42pm 21 23 mph 1010.4mb 57f 53f
2:36pm 21 23 mph 1010.6mb 57f 53f
2:30pm 18 24 mph 1010.7mb 57f -
2:24pm 21 24 mph 1010.8mb 57f 53f
2:18pm 20 23 mph 1010.8mb 57f 52f
2:12pm 17 20 mph 1010.9mb 57f 52f
2:06pm 15 18 mph 1010.9mb 57f 52f
2:00pm 15 17 mph 1010.7mb 57f 52f
1:54pm 16 18 mph 1010.7mb 57f 52f
1:48pm 17 18 mph - - -
1:42pm 18 20 mph 1010.9mb 57f 52f
1:36pm 20 24 mph 1010.9mb 57f 52f
1:30pm 22 26 mph 1011mb 57f 52f
1:24pm 24 26 mph 1011.1mb 57f 52f
1:18pm 17 26 mph 1011.2mb 57f 51f
1:12pm 23 30 mph 1011.2mb 57f 51f
1:06pm 23 29 mph 1011.3mb 57f 52f
1:00pm 15 18 mph 1011.4mb 57f 53f
12:54pm 14 16 mph 1011.4mb 57f 53f
12:48pm 15 16 mph 1011.4mb 57f 53f
12:42pm 13 15 mph 1011.5mb 57f 52f
12:36pm 15 16 mph 1011.6mb 57f 53f
12:30pm 13 18 mph 1011.7mb 57f 52f
12:24pm 16 20 mph 1011.8mb 57f 52f
12:18pm 16 20 mph 1011.8mb 57f 52f
12:12pm 18 20 mph 1011.9mb 57f 52f
12:06pm 13 17 mph 1012.1mb 57f 52f
12:00pm 8 11 mph 1012.2mb 57f 52f
11:54am 8 14 mph 1012.2mb 57f 52f
11:48am 10 17 mph 1012.3mb 57f 52f
11:42am 10 14 mph 1012.3mb 57f 53f
11:36am 8 22 mph 1012.3mb 57f 53f
11:30am 15 17 mph 1012.1mb 57f 54f
11:24am 15 17 mph 1012.2mb 57f 54f
11:18am 15 18 mph 1012.3mb 57f 54f
11:12am 16 22 mph 1012.3mb 57f 54f
11:06am 18 22 mph 1012.4mb 57f 54f
11:00am 20 23 mph 1012.5mb 57f 54f
10:54am 18 22 mph 1012.6mb 57f 54f
10:48am 18 23 mph 1012.6mb 57f 54f
10:42am 20 23 mph 1012.8mb 57f 54f
10:36am 20 24 mph 1013mb 57f 54f
10:30am 15 24 mph 1013mb 57f 53f
10:24am 15 17 mph 1013.1mb 57f 54f
10:18am 17 24 mph 1013.1mb 57f 54f
10:12am 20 25 mph 1013.2mb 57f 54f
10:06am 18 22 mph 1013.2mb 57f 55f
10:00am 21 23 mph 1013.3mb 57f 54f
9:54am 21 24 mph 1013.3mb 57f 54f
9:48am 22 25 mph 1013.3mb 57f 55f
9:42am 21 22 mph 1013.2mb 57f 55f
9:36am 21 24 mph 1013.2mb 57f 55f
9:30am 21 25 mph 1013.1mb 57f 55f
9:24am 21 24 mph 1012.9mb 57f 55f
9:18am 20 24 mph 1012.7mb 57f -
9:12am 20 24 mph 1012.7mb 57f 55f
9:06am 21 23 mph 1012.7mb 57f 55f
9:00am 20 22 mph 1012.6mb 57f 55f
8:54am 21 23 mph 1012.4mb 57f 55f
8:48am 21 25 mph 1012.3mb 57f 55f
8:42am 23 25 mph 1012.2mb 57f 56f
8:36am 22 25 mph 1012.2mb 57f 56f
8:30am 21 24 mph 1012.1mb 57f 56f
8:24am 22 24 mph 1012.2mb 57f 55f
8:18am 22 24 mph 1012.1mb 57f 55f
8:12am 21 24 mph 1012.1mb 57f 55f
8:06am 16 20 mph 1012mb 57f 55f
8:00am 17 20 mph 1012mb 57f 55f
7:54am 18 22 mph 1012mb 57f 55f
7:48am 17 20 mph 1011.9mb 57f 55f
7:42am 17 22 mph 1012mb 57f 55f
7:36am 20 22 mph 1011.9mb 57f 55f
7:30am 18 22 mph 1012mb 57f 55f
7:24am 18 22 mph 1012.1mb 57f 56f
7:18am 21 23 mph 1012.1mb 57f 55f
7:12am 21 23 mph 1012.2mb 57f 56f
7:06am 20 23 mph 1012.2mb 57f 56f
7:00am 21 24 mph 1012.2mb 57f 55f
6:54am 22 24 mph 1012.2mb 57f 56f
6:48am 21 24 mph 1012.1mb 57f 56f
6:42am 23 26 mph 1012.1mb 57f 56f
6:36am 23 26 mph 1012mb 57f 56f
6:30am 23 26 mph 1012mb 57f 56f
6:24am 22 25 mph 1011.9mb 57f 56f
6:18am 23 28 mph 1011.8mb 57f 56f
6:12am 20 26 mph 1011.8mb 57f 56f
6:06am 22 26 mph 1011.7mb 57f 56f
6:00am 23 28 mph 1011.7mb 57f 56f
5:54am 23 28 mph 1011.8mb 57f 56f
5:48am 24 31 mph 1011.7mb 57f 56f
5:42am 21 24 mph 1011.7mb 57f 56f
5:36am 13 15 mph 1011.8mb 57f 54f
5:30am 13 20 mph 1011.7mb 57f 54f
5:24am 18 24 mph 1011.7mb 57f 55f
5:18am 21 24 mph 1011.6mb 57f 56f
5:12am 21 29 mph 1011.6mb 57f 56f
5:06am 21 25 mph 1011.6mb 57f 56f
5:00am 18 22 mph 1011.6mb 57f 56f
4:54am 17 20 mph 1011.6mb 57f 56f
4:48am 15 23 mph 1011.6mb 57f 55f
4:42am 21 24 mph 1011.6mb 57f 55f
4:36am 22 25 mph 1011.6mb 57f 56f
4:30am 18 24 mph 1011.5mb 57f 56f
4:24am 22 26 mph 1011.6mb 57f 56f
4:18am 18 22 mph 1011.7mb 57f 56f
4:12am 17 21 mph 1011.8mb 57f 55f
4:06am 17 22 mph 1011.9mb 57f 54f
4:00am 22 28 mph 1011.9mb 57f 54f
3:54am 20 26 mph 1011.9mb 57f 56f
3:48am 23 26 mph 1012mb 57f 56f
3:42am 18 22 mph 1012mb 57f 56f
3:36am 22 24 mph 1012mb 57f 56f
3:30am 22 25 mph 1012.1mb 57f 56f
3:24am 18 24 mph 1012.1mb 57f 56f
3:18am 22 24 mph 1012mb 57f 56f
3:12am 18 22 mph 1012.2mb 57f 56f
3:06am 18 28 mph 1012.3mb 57f 55f
3:00am 22 25 mph 1012.3mb 57f 55f
2:54am 17 21 mph 1012.3mb 57f 56f
2:48am 16 20 mph 1012.3mb 57f 56f
2:42am 16 21 mph 1012.3mb 57f 56f
2:36am 20 22 mph 1012.3mb 57f 56f
2:30am 17 21 mph 1012.3mb 57f 56f
2:24am 20 28 mph 1012.4mb 57f 55f
2:18am 21 25 mph 1012.5mb 57f 56f
2:12am 22 26 mph 1012.5mb 57f 57f
2:06am 22 25 mph 1012.4mb 57f 56f
2:00am 21 24 mph 1012.4mb 57f 56f
1:54am 23 25 mph 1012.4mb 57f 56f
1:48am 18 22 mph 1012.3mb 57f 56f
1:42am 15 22 mph 1012.3mb 57f 56f
1:36am 15 17 mph 1012.4mb 57f 56f
1:30am 14 17 mph 1012.5mb 57f 56f
1:24am 14 16 mph 1012.5mb 57f 56f
1:18am 13 17 mph 1012.5mb 57f 56f
1:12am 15 17 mph 1012.5mb 57f 56f
1:06am 16 20 mph 1012.5mb 57f 55f
1:00am 16 18 mph 1012.5mb 57f 55f
12:54am 15 18 mph 1012.5mb 57f 56f
12:48am 16 22 mph 1012.5mb 57f 56f
12:42am 21 23 mph 1012.5mb 57f 56f
12:36am 21 23 mph 1012.6mb 57f 55f
12:30am 22 29 mph 1012.6mb 57f 55f
12:24am 23 25 mph 1012.6mb 57f 56f
12:18am 20 24 mph 1012.6mb 57f 57f
12:12am 21 24 mph 1012.7mb 57f 57f
12:06am 22 25 mph 1012.7mb 57f 57f
12:00am 21 25 mph 1012.8mb 57f 57f
Sun 01/22 11:54pm 22 25 mph 1012.8mb 57f 56f
11:48pm 21 24 mph 1012.8mb 57f 56f
11:42pm 20 26 mph 1012.8mb 57f 56f
11:36pm 23 26 mph 1012.9mb 57f 56f
11:30pm 22 25 mph 1012.9mb 57f 56f
11:24pm 22 24 mph 1012.9mb 57f 56f
11:18pm 22 24 mph 1012.8mb 57f 56f
11:12pm 22 23 mph 1012.8mb 57f 56f
11:06pm 16 20 mph 1012.9mb 57f 56f
11:00pm 16 22 mph 1012.9mb 57f 56f
10:54pm 20 22 mph 1012.9mb 57f 55f
10:48pm 21 25 mph 1012.8mb 57f 55f
10:42pm 20 24 mph 1012.9mb 57f 55f
10:36pm 23 32 mph 1012.9mb 57f 54f
10:30pm 26 31 mph 1012.9mb 57f 56f
10:24pm 24 31 mph 1012.6mb 57f 57f
10:18pm 17 21 mph 1012.7mb 57f 57f
10:12pm 16 22 mph 1012.8mb 57f 57f
10:06pm 18 23 mph 1012.7mb 57f 57f
10:00pm 16 18 mph 1012.9mb 57f 57f
9:54pm 16 17 mph 1012.9mb 57f 57f
9:48pm 16 18 mph 1013mb 57f 56f
9:42pm 16 17 mph 1012.9mb - -
9:36pm 15 16 mph 1012.9mb - -
9:30pm 14 16 mph 1013mb 57f 56f
9:24pm 13 17 mph 1012.8mb 57f 56f
9:18pm 15 16 mph 1012.8mb 57f 56f
9:12pm 13 14 mph 1012.8mb 58f 56f
9:06pm 11 13 mph 1012.9mb 58f 56f
9:00pm 11 13 mph 1013mb 58f -
8:54pm 11 13 mph 1013mb 58f 56f
8:48pm 10
mph
1013mb 58f 56f
8:42pm 9 10 mph 1013mb 58f 56f
8:36pm 9 10 mph 1013.2mb 58f 56f
8:30pm 9 10 mph 1013.3mb 58f -
8:24pm 8 10 mph 1013.3mb 58f 56f
8:18pm 9 10 mph 1013.3mb 58f 56f
8:12pm 8 9 mph 1013.2mb 58f 56f
8:06pm 3 5 mph 1013.1mb 58f 56f
8:00pm 2 5 mph 1013mb 58f 56f
7:54pm 3 7 mph 1012.9mb 58f 56f
7:48pm 6
mph
1012.9mb 58f 55f
7:42pm 3 5 mph 1013mb 58f 55f
7:36pm 3 6 mph 1013.2mb 58f 54f
7:30pm 6 9 mph 1013.2mb 58f 54f
7:24pm 7 8 mph 1013.1mb 58f 54f
7:18pm 6 7 mph 1013.1mb 58f 54f
7:12pm 5 7 mph 1013.1mb 58f 54f
7:06pm 5 8 mph 1013mb 58f 53f
7:00pm 6 8 mph 1012.8mb 58f 53f
6:54pm 7 8 mph 1012.9mb 58f 54f
6:48pm 6 8 mph - - -
6:42pm 3 6 mph 1012.8mb 58f 54f
6:36pm 3 7 mph 1012.8mb 58f 53f
6:30pm 6 8 mph 1012.7mb 58f 53f
6:24pm 7 9 mph 1012.7mb 58f 53f
6:18pm 6 10 mph - - -
6:12pm 8 11 mph 1012.5mb 58f 53f
6:06pm 8 10 mph 1012.5mb 58f 53f
6:00pm 8 13 mph - 58f 53f
5:54pm 9 13 mph - 58f 53f
5:48pm 9 17 mph - - -
5:42pm 9 15 mph 1012.1mb 58f 53f
5:36pm 10 15 mph 1012.2mb 58f 53f
5:30pm 13 18 mph 1012.2mb 58f -
5:24pm 13 16 mph 1012.3mb 58f -
5:18pm 11 16 mph - - -
5:12pm 14 17 mph 1012.1mb 58f 52f
5:06pm 11 17 mph 1012.1mb 57f 52f
5:00pm 14 17 mph 1012mb 58f 52f
4:54pm 13 17 mph 1012.1mb 58f 52f
4:48pm 13 17 mph - - -
4:42pm 15 17 mph 1012.5mb 57f 52f
4:36pm 10 18 mph 1012.5mb 58f 52f
4:30pm 13 16 mph 1012.2mb 58f 52f
4:24pm 11 18 mph 1012.2mb 58f 52f
4:18pm 13 17 mph - - -
4:12pm 16 18 mph 1012.3mb 58f 51f
4:06pm 11 17 mph 1012.5mb 58f 52f
4:00pm 14 18 mph 1012.4mb 58f 52f
3:54pm 10 17 mph 1012.4mb 58f 52f
3:48pm 11 15 mph - - -
3:42pm 10 20 mph 1012.6mb 58f -
3:36pm 14 18 mph 1012.3mb 58f -
3:30pm 14 21 mph 1012.3mb 58f 52f
3:24pm 13 17 mph 1012.3mb 58f 52f
3:18pm 20 24 mph - - -
3:12pm 15 28 mph 1012.3mb 58f 51f
3:06pm 22 29 mph 1012.2mb 58f 51f
3:00pm 18 25 mph 1012.4mb 58f 51f
2:54pm 21 25 mph 1012.7mb 58f 51f
2:48pm 18 29 mph - - -
2:42pm 17 25 mph - 58f 51f
2:36pm 22 28 mph - 58f 51f
2:30pm 18 26 mph 1013mb 58f 51f
2:24pm 23 29 mph 1012.8mb 58f 51f
2:18pm 22 31 mph 1012.9mb 58f 51f
2:12pm 20 24 mph 1013.1mb 58f 51f
2:06pm 18 26 mph 1013.1mb 58f 51f
2:00pm 20 24 mph 1013.2mb 58f 51f
1:54pm 20 29 mph 1013.4mb 58f 51f
1:48pm 18 28 mph - - -
1:42pm 22 29 mph 1013.7mb 58f 50f
1:36pm 18 24 mph 1014mb 58f 51f
1:30pm 17 29 mph 1013.9mb 58f 51f
1:24pm 17 30 mph 1013.7mb 58f 51f
1:18pm 17 26 mph 1013.9mb 58f 51f
1:12pm 18 26 mph 1014.2mb 58f 51f
1:06pm 20 25 mph 1014.2mb 58f 51f
1:00pm 17 28 mph 1014.5mb 58f 51f
12:54pm 15 25 mph 1014.8mb 58f 51f
12:48pm 15 22 mph 1015.1mb 58f 51f
12:42pm 17 22 mph 1015.4mb 58f 51f
12:36pm 18 23 mph 1015.3mb 58f 50f
12:30pm 18 28 mph 1015.3mb 58f 50f
12:24pm 18 25 mph 1015.6mb 58f 50f
12:18pm 20 23 mph 1015.8mb 58f 51f
12:12pm 18 26 mph 1016.1mb 58f 50f
12:06pm 18 26 mph 1016.4mb 58f 50f
12:00pm 16 25 mph 1016.5mb 58f 51f
11:54am 17 26 mph 1016.7mb 58f 51f
11:48am 21 28 mph 1016.9mb 58f 51f
11:42am 17 25 mph 1016.8mb 58f 50f
11:36am 17 23 mph 1017.3mb 58f 51f
11:30am 17 23 mph 1017.8mb 58f 51f
11:24am 23 28 mph 1017.5mb 58f 50f
11:18am 16 26 mph 1017.8mb 58f 51f
11:12am 21 28 mph 1017.7mb 58f 51f
11:06am 20 26 mph 1017.9mb 58f 51f
11:00am 18 26 mph 1018mb 58f 51f
10:54am 18 25 mph 1017.8mb 58f 51f
10:48am 20 24 mph 1018.1mb 58f 51f
10:42am 16 24 mph 1018.6mb 58f 51f
10:36am 16 28 mph 1018.8mb 58f 51f
10:24am 17 25 mph 1019mb 58f 51f
10:18am 16 22 mph 1019.4mb 58f 51f
10:12am 21 28 mph 1019.5mb 58f 51f
10:06am 17 23 mph 1019.6mb 58f 51f
10:00am 14 22 mph 1019.2mb - -
9:54am 16 22 mph 1019mb 58f 52f
9:48am 18 23 mph 1019.1mb 58f 52f
9:42am 15 20 mph 1019.2mb 58f 52f
9:36am 16 22 mph 1019.8mb 58f 52f
9:30am 18 22 mph 1019.4mb 58f 52f
9:24am 17 22 mph 1019.3mb 58f 52f
9:18am 14 22 mph 1019.4mb 58f 52f
9:12am 17 21 mph 1019.1mb 58f 52f
9:06am 14 18 mph 1019.1mb 58f 52f
9:00am 13 18 mph 1019.1mb 58f 52f
8:54am 15 18 mph 1019.2mb 58f 52f
8:48am 14 20 mph 1019.4mb 58f 51f
8:42am 13 17 mph 1019.6mb 58f 51f
8:36am 13 20 mph 1019.7mb 58f 52f
8:30am 11 18 mph 1019.6mb 58f 52f
8:24am 15 20 mph 1019.6mb 58f 52f
8:18am 14 18 mph 1019.3mb 58f 51f
8:12am 11 18 mph 1019.4mb 58f 51f
8:06am 14 18 mph 1019.2mb 58f 51f
8:00am 14 17 mph 1019.2mb 58f 51f
7:54am 13 16 mph 1019.3mb 58f 51f
7:48am 11 14 mph 1019.4mb 58f 51f
7:42am 10 14 mph 1019.3mb 58f 51f
7:36am 9 11 mph 1019.5mb 58f 51f
7:30am 9 14 mph 1019.3mb 58f 51f
7:24am 11 15 mph 1019.1mb 58f 51f
7:18am 13 18 mph 1019.1mb 58f 51f
7:12am 11 16 mph 1019.1mb 58f 51f
7:06am 11 15 mph 1018.9mb 58f 51f
7:00am 13 17 mph 1019.3mb 58f 51f
6:54am 14 18 mph 1018.9mb 58f 51f
6:48am 11 17 mph 1019mb 58f 51f
6:42am 15 18 mph 1018.9mb 58f 51f
6:36am 14 17 mph 1018.9mb 58f 51f
6:30am 14 20 mph 1018.8mb 58f 51f
6:24am 13 17 mph 1018.7mb 58f 51f
6:18am 9 16 mph 1019mb 58f 51f
6:12am 13 15 mph 1018.8mb 58f 51f
6:06am 6 9 mph 1019mb 58f 51f
6:00am 5 8 mph 1019.2mb 58f 51f
5:54am 7 9 mph 1019.2mb 58f 51f
5:48am 10 15 mph 1019mb 58f 52f
5:42am 9 15 mph - 58f 52f
5:36am 10 14 mph - 58f 52f
5:30am 11 14 mph 1018.4mb 58f 52f
5:24am 9 14 mph 1018.8mb 58f 52f
5:18am 13 16 mph 1018.5mb 58f 52f
5:12am 13 16 mph 1018.4mb 58f 53f
5:06am 13 15 mph 1018.3mb 58f 52f
5:00am 13 17 mph 1018.3mb 58f 52f
4:54am 13 17 mph 1018.1mb 58f 52f
4:48am 10 15 mph 1018.3mb 58f 53f
4:42am 9 11 mph 1018.6mb 58f 53f
4:36am 9 11 mph 1018.9mb 58f 53f
4:30am 7 10 mph 1019.4mb 58f 53f
4:24am 8 14 mph 1019mb 58f 53f
4:18am 8 14 mph 1018.7mb 58f 52f
4:12am 10 13 mph 1018.6mb 58f 53f
4:06am 11 14 mph 1018.7mb 58f 52f
4:00am 9 13 mph 1019mb 58f 52f
3:54am 9 13 mph 1019.1mb 58f 52f
3:48am 9 11 mph 1019.2mb 58f 53f
3:42am 10 13 mph 1019.4mb 58f 53f
3:36am 9 10 mph 1019.5mb 58f 53f
3:30am 8 10 mph 1019.7mb 58f 53f
3:24am 7 10 mph 1019.7mb 58f 53f
3:18am 7 8 mph 1019.9mb 58f 53f
3:12am 3 5 mph 1020.6mb 58f 53f
3:06am 3 7 mph 1020.4mb 58f 53f
3:00am 5 8 mph 1020mb 58f 53f
2:54am 6 7 mph 1019.9mb 58f 53f
2:48am 6 8 mph 1019.8mb 58f 53f
2:42am 7 8 mph 1019.7mb 58f 53f
2:36am 6 9 mph 1019.7mb 58f 53f
2:30am 8 9 mph 1019.5mb 58f 53f
2:24am 6 9 mph 1019.4mb 58f 53f
2:18am 7 10 mph 1019.4mb 58f 53f
2:12am 8 10 mph 1019.3mb 58f 54f
2:06am 6 8 mph 1019.5mb 58f 54f
2:00am 6 8 mph 1019.5mb 58f 54f
1:54am 6 8 mph 1019.5mb 58f 54f
1:48am 5 7 mph 1019.3mb 58f 54f
1:42am 6
mph
1019.4mb 58f 54f
1:36am 3 5 mph 1019.8mb 58f 55f
1:30am 3 6 mph 1019.9mb 58f 55f
1:24am 5 7 mph 1020mb 58f 55f
1:18am 5 6 mph 1019.8mb 58f 55f
1:12am 6 8 mph 1019.6mb 58f 55f
1:06am 7
mph
1019.5mb 58f 55f
1:00am 6 8 mph 1019.5mb 58f 55f
12:54am 7 8 mph 1019.5mb 58f 55f
12:48am 6 8 mph 1019.4mb 58f 55f
12:42am 6 8 mph 1019.4mb 58f 55f
12:36am 6 8 mph 1019.3mb 58f 55f
12:30am 6 8 mph 1019.4mb 58f 55f
12:24am 6 8 mph 1019.5mb 58f 55f
12:18am 6 7 mph 1019.6mb 58f 56f
12:12am 5 6 mph 1019.9mb 58f 56f
12:06am 3 5 mph 1020.3mb 58f 56f
12:00am 5 6 mph 1019.9mb 58f 56f
Sat 01/21 11:54pm 7 8 mph 1019.8mb 58f 56f
11:48pm 7 8 mph 1019.7mb 58f 56f
11:42pm 7 9 mph 1019.8mb 58f 56f
11:36pm 8 10 mph 1019.9mb 58f 56f
11:30pm 8 10 mph 1020.2mb 58f 56f
11:24pm 9 10 mph 1020.2mb 58f 56f
11:18pm 9 10 mph 1020.5mb 58f 57f
11:12pm 8 9 mph 1020.5mb 58f 57f
11:06pm 7 9 mph 1020.6mb 58f 57f
11:00pm 9 10 mph 1020.6mb 58f 57f
10:54pm 9 10 mph 1020.2mb 58f 57f
10:48pm 9 11 mph 1019.9mb 58f 57f
10:42pm 9 10 mph 1019.8mb 58f -
10:36pm 8 9 mph 1019.6mb 58f -
10:30pm 7 8 mph 1019.5mb 58f 57f
10:24pm 6 7 mph 1019.5mb 58f 56f
10:18pm 7 8 mph 1019.3mb 58f 56f
10:12pm 6 8 mph 1019.5mb 58f 56f
10:06pm 5 7 mph 1019.3mb 58f 56f
10:00pm 6 8 mph 1019.2mb 58f 56f
9:54pm 5 6 mph 1019.3mb 58f 56f
9:48pm 5 7 mph 1019.6mb 58f 56f
9:42pm 5 6 mph 1019.3mb 58f 56f
9:36pm 3 5 mph 1019.5mb 58f 56f
9:30pm 2 3 mph 1019.4mb 58f 56f
9:24pm 3 6 mph 1019.1mb 58f 56f
9:18pm 3 6 mph 1018.5mb 58f 56f
9:12pm 5 6 mph 1018.1mb 58f 56f
9:06pm 2 3 mph 1018.7mb 58f 56f
9:00pm 2 3 mph 1019mb 58f 56f
8:54pm 2
mph
1019.2mb 58f 56f
8:48pm 2 3 mph 1019.1mb 58f 56f
8:42pm 2 5 mph 1019.2mb 58f 56f
8:36pm 3 6 mph 1019.3mb 58f 56f
8:30pm 5 7 mph 1019.3mb 58f 56f
8:24pm 6 9 mph 1019.2mb 58f 56f
8:18pm 7 9 mph 1019.2mb 58f 56f
8:12pm 8
mph
1019.1mb 58f 56f
8:06pm 7 9 mph 1018.9mb 58f 56f
8:00pm 8 10 mph 1018.8mb 58f 56f
7:54pm 9 10 mph 1018.8mb 58f 56f
7:48pm 8 9 mph 1018.7mb 58f 56f
7:42pm 9 10 mph 1018.6mb 58f 56f
7:36pm 10
mph
1018.4mb 58f 56f
7:30pm 8 10 mph 1018.2mb 58f 56f
7:24pm 10 14 mph 1018.2mb 58f 57f
7:18pm 13 15 mph 1018.3mb 58f 57f
7:12pm 13 14 mph 1018.1mb 58f 57f
7:06pm 13 15 mph 1017.9mb 58f 56f
7:00pm 14 15 mph 1018mb 58f 56f
6:54pm 13 16 mph 1017.9mb 58f 57f
6:48pm 14 16 mph 1017.7mb 58f 57f
6:42pm 14 16 mph 1017.5mb 58f 56f
6:36pm 14 15 mph 1017.6mb 58f 57f
6:30pm 13 14 mph 1017.4mb - -
6:24pm 10 13 mph 1017.2mb 58f 56f
6:18pm 10 14 mph 1017.1mb 58f 57f
6:12pm 11 14 mph 1016.8mb 58f 56f
6:06pm 13 14 mph 1016.7mb 58f 56f
6:00pm 14 15 mph - - -
5:54pm 13 14 mph 1016.4mb 58f 56f
5:48pm 11 13 mph - - -
5:42pm 11 15 mph 1016.2mb 58f 57f
5:36pm 13 14 mph 1016.3mb 58f 56f
5:30pm 13 16 mph 1016.2mb - -
5:24pm 14 16 mph 1016.1mb 58f 56f
5:18pm 14 16 mph 1015.8mb 58f 57f
5:12pm 14 16 mph 1015.8mb 58f 56f
5:06pm 13 14 mph 1015.7mb 58f 57f
5:00pm 13 16 mph 1015.8mb - -
4:54pm 14 17 mph 1015.8mb 58f 57f
4:48pm 16 18 mph - - -
4:42pm 17 20 mph 1015.7mb 58f 57f
4:36pm 20 21 mph 1016.1mb 58f 57f
4:30pm 18 21 mph 1016mb 58f 57f
4:24pm 18 21 mph 1015.7mb 58f 57f
4:18pm 20 22 mph - - -
4:12pm 18 21 mph 1015.1mb 58f 56f
4:06pm 18 21 mph 1015mb 58f 56f
4:00pm 20 22 mph 1015.2mb 58f -
3:54pm 21 23 mph 1015.4mb 58f 56f
3:48pm 20 22 mph - - -
3:42pm 20 22 mph 1015.3mb 58f -
3:36pm 17 23 mph 1015mb 58f -
3:30pm 22 24 mph 1015.6mb 58f -
3:24pm 18 23 mph 1015.3mb 58f 56f
3:18pm 18 23 mph 1015.1mb 58f 56f
3:12pm 21 23 mph 1015mb 58f 56f
3:06pm 21 23 mph 1014.9mb 58f 56f
3:00pm 20 23 mph 1014.8mb 58f 56f
2:54pm 21 24 mph 1014.9mb 58f 56f
2:48pm 22 26 mph - - -
2:42pm 22 25 mph 1014.6mb 58f -
2:36pm 23 25 mph 1014.5mb 58f -
2:30pm 23 26 mph 1014.6mb 58f 56f
2:24pm 21 26 mph 1014.5mb 58f 56f
2:18pm 22 24 mph - - -
2:12pm 21 23 mph 1014.2mb 58f 56f
2:06pm 20 22 mph 1014mb 58f 56f
2:00pm 20 22 mph 1013.7mb 58f 56f
1:54pm 18 25 mph 1013.7mb 58f 56f
1:48pm 21 25 mph - - -
1:42pm 22 25 mph 1013.7mb 58f 56f
1:36pm 22 24 mph 1013.8mb 58f 56f
1:30pm 21 23 mph 1013.6mb 58f 56f
1:24pm 20 24 mph 1013.5mb 58f 56f
1:18pm 20 29 mph 1013.4mb 58f 56f
1:12pm 24 29 mph 1013.6mb 58f 56f
1:06pm 25 29 mph 1013.8mb 58f 56f
1:00pm 22 29 mph 1013.8mb 58f 56f
12:54pm 22 26 mph 1013.9mb 58f 56f
12:48pm 22 25 mph 1013.9mb 58f 56f
12:42pm 23 24 mph 1013.7mb 58f 56f
12:36pm 20 23 mph 1013.6mb 58f 56f
12:30pm 22 24 mph 1013.6mb 58f 56f
12:24pm 23 25 mph 1013.6mb 58f 56f
12:18pm 22 24 mph 1013.6mb 58f 56f
12:12pm 22 25 mph 1013.6mb 58f 56f
12:06pm 22 26 mph 1013.8mb 58f 56f
12:00pm 22 24 mph 1013.8mb 58f 56f
11:54am 21 23 mph 1013.7mb 58f 56f
11:48am 22 23 mph 1013.7mb 58f 56f
11:42am 21 23 mph 1013.7mb 58f 56f
11:36am 20 24 mph 1013.6mb 58f 56f
11:30am 22 25 mph 1013.7mb 58f 56f
11:24am 22 25 mph 1013.7mb 58f 55f
11:18am 23 28 mph 1013.7mb 58f 56f
11:12am 25 28 mph 1013.6mb 58f 55f
11:06am 24 26 mph 1013.6mb 58f 55f
11:00am 23 25 mph 1013.5mb 58f 56f
10:54am 23 25 mph 1013.4mb 58f 56f
10:48am 24 26 mph 1013.4mb 58f 55f
10:42am 23 28 mph - 58f 55f
10:36am 22 26 mph - 58f 55f
10:30am 21 24 mph 1013.4mb 58f 55f
10:24am 23 26 mph 1013.5mb 58f 55f
10:18am 18 22 mph 1013.5mb 58f 55f
10:12am 20 21 mph 1013.4mb 58f 55f
10:06am 15 16 mph 1013.3mb 58f 55f
10:00am 13 16 mph 1013.3mb 58f 55f
9:54am 11 15 mph 1013.2mb 58f 55f
9:48am 11 14 mph 1013.1mb 58f 55f
9:42am 11 13 mph 1013mb 58f 55f
9:36am 11 14 mph 1013mb 58f 55f
9:30am 10 13 mph 1012.8mb 58f 55f
9:24am 5 7 mph 1012.7mb 58f 55f
9:18am 3 7 mph 1012.4mb 58f 55f
9:12am 6 7 mph 1012.1mb 58f 55f
9:06am 6 13 mph 1012.1mb 58f 54f
9:00am 10 13 mph 1012.2mb 58f 54f
8:54am 8 9 mph 1012.2mb 58f 54f
8:48am 5 8 mph 1012mb 58f 54f
8:42am 7 9 mph 1012mb 58f 53f
8:36am 5 8 mph 1011.7mb 58f 54f
8:30am 5 8 mph 1011.6mb 58f 53f
8:24am 6 8 mph 1011.4mb 58f 53f
8:18am 3 6 mph 1011.1mb 58f 53f
8:12am 2 5 mph 1011.1mb 58f 53f
8:06am 5 6 mph 1011.2mb 58f 52f
8:00am 3 7 mph 1011.2mb 58f 52f
7:54am 6 8 mph 1011.1mb 58f 52f
7:48am 6 10 mph 1010.6mb 58f 52f
7:42am 8 10 mph 1010.4mb 58f 52f
7:36am 7 9 mph 1010.4mb 58f 51f
7:30am 7 9 mph 1010.3mb 58f 52f
7:24am 6 8 mph 1010.2mb 58f 51f
7:18am 5 9 mph 1010.2mb 58f 51f
7:12am 6 9 mph 1010.2mb 58f 52f
7:06am 7 9 mph 1010.1mb 58f 51f
7:00am 6 8 mph 1009.9mb 58f 51f
6:54am 7 9 mph 1009.6mb 58f 51f
6:48am 9 13 mph 1009.5mb 58f 51f
6:42am 9 13 mph 1009.5mb 58f 51f
6:36am 9 11 mph 1009.2mb 58f 51f
6:30am 7 10 mph 1008.9mb 58f 51f
6:24am 9 10 mph 1008.7mb 58f 51f
6:18am 9 10 mph 1008.6mb 58f -
6:12am 7 10 mph 1008.6mb 58f 51f
6:06am 10 11 mph 1008.4mb 58f 51f
6:00am 8 11 mph 1008.4mb 58f 52f
5:54am 9 13 mph 1008.4mb 58f 51f
5:48am 9 11 mph 1008.3mb 58f 51f
5:42am 7 10 mph 1008.1mb 58f 51f
5:36am 9 13 mph 1008mb 58f 52f
5:30am 9 13 mph 1007.7mb 58f 52f
5:24am 7 11 mph 1007.5mb 58f 51f
5:18am 7 9 mph 1007.3mb 58f 51f
5:12am 7 10 mph 1007mb 58f 51f
5:06am 9 11 mph 1006.9mb 58f 51f
5:00am 9 10 mph 1006.7mb 58f 51f
4:54am 7 10 mph 1006.8mb 58f 51f
4:48am 6 10 mph 1006.6mb 57f 51f
4:42am 9 15 mph 1006.7mb 58f 52f
4:36am 14 17 mph 1006.6mb 58f 53f
4:30am 15 18 mph 1006.7mb 58f 53f
4:24am 7 20 mph 1006.6mb 58f 52f
4:18am 15 20 mph 1006.5mb 58f 53f
4:12am 17 21 mph 1006.3mb 58f 53f
4:06am 14 17 mph 1006.3mb 58f 53f
4:00am 15 18 mph 1006.2mb 58f 53f
3:54am 14 18 mph 1006.1mb 58f 54f
3:48am 13 16 mph 1005.9mb 58f 54f
3:42am 14 16 mph 1005.8mb 58f 54f
3:36am 14 17 mph 1005.6mb 58f 54f
3:30am 11 16 mph 1005.5mb 58f 54f
3:24am 10 14 mph 1005.4mb 58f 53f
3:18am 10 15 mph 1005.3mb 58f 53f
3:12am 13 16 mph 1005.2mb 58f 53f
3:06am 10 15 mph 1005mb 58f 53f
3:00am 9 14 mph 1005mb 58f 53f
2:54am 9 14 mph 1004.9mb 57f 54f
2:48am 8 13 mph 1004.8mb 58f 53f
2:42am 7 10 mph 1004.7mb 58f 53f
2:36am 8 10 mph 1004.7mb 58f 53f
2:30am 5 8 mph 1004.6mb 58f 53f
2:24am 7 10 mph 1004.5mb 58f 53f
2:18am 6 10 mph 1004.5mb 57f 53f
2:12am 9 11 mph 1004.5mb 58f 53f
2:06am 9 13 mph 1004.3mb 58f 53f
2:00am 9 20 mph 1004.2mb 58f 53f
1:54am 18 22 mph 1004.1mb 58f 54f
1:48am 17 22 mph 1004mb 58f 54f
1:42am 20 23 mph 1003.9mb 58f 54f
1:36am 20 22 mph 1003.7mb 58f 54f
1:30am 17 21 mph 1003.6mb 58f 54f
1:24am 15 17 mph 1003.6mb 58f 54f
1:18am 15 17 mph 1003.5mb 58f 54f
1:12am 15 20 mph 1003.4mb 58f 54f
1:06am 17 23 mph 1003.2mb 58f 54f
1:00am 22 25 mph 1003.1mb 58f 54f
12:54am 23 29 mph 1003.1mb 58f 54f
12:48am 23 29 mph 1002.9mb 58f 54f
12:42am 23 26 mph 1002.9mb 58f 54f
12:36am 25 29 mph 1003mb 58f 54f
12:30am 24 26 mph 1002.9mb 58f 54f
12:24am 24 29 mph 1002.9mb 58f 54f
12:18am 23 28 mph 1002.9mb 58f 54f
12:12am 25 29 mph 1002.8mb 58f 54f
12:06am 25 31 mph 1002.7mb 58f 54f
12:00am 28 34 mph 1002.6mb 58f 54f
Fri 01/20 11:54pm 31 37 mph 1002.5mb 58f 54f
11:48pm 33 38 mph 1002.3mb 58f 54f
11:42pm 34 40 mph 1002mb 58f 54f
11:36pm 37 41 mph 1001.6mb 58f 54f
11:30pm 34 38 mph 1001.4mb 58f 54f
11:24pm 33 39 mph 1001.5mb 58f 55f
11:18pm 34 39 mph 1001.7mb 58f 55f
11:12pm 32 36 mph 1001.8mb 58f 55f
11:06pm 32 36 mph 1001.8mb 58f 55f
11:00pm 30 32 mph 1001.8mb 58f 55f
10:54pm 28 32 mph 1001.8mb 58f 55f
10:48pm 28 31 mph 1001.7mb 58f 55f
10:42pm 28 31 mph 1001.7mb 58f 55f
10:36pm 30 33 mph 1001.8mb 58f 55f
10:30pm 32 36 mph 1001.6mb 58f 55f
10:24pm 31 36 mph 1001.5mb 58f 55f
10:18pm 30 34 mph 1001.4mb 58f 55f
10:12pm 29 34 mph 1001.2mb 58f 55f
10:06pm 29 34 mph 1001.1mb 58f 55f
10:00pm 29 34 mph 1001.4mb 58f 55f
9:54pm 26 36 mph 1001.4mb 58f 56f
9:48pm 29 33 mph 1001.4mb 58f 55f
9:42pm 21 24 mph 1001.4mb 58f -
9:36pm 18 23 mph 1001.4mb 58f -
9:30pm 18 26 mph 1001.3mb 58f 55f
9:24pm 24 30 mph 1001.3mb 58f 55f
9:18pm 26 30 mph 1001.2mb 58f 55f
9:12pm 21 23 mph 1001.3mb 58f 55f
9:06pm 11 14 mph 1001.3mb 58f 55f
9:00pm 13 16 mph 1001.1mb 58f 55f
8:54pm 11 16 mph 1001mb 58f 55f
8:48pm 10 22 mph 1000.8mb 58f 55f
8:42pm 17 31 mph 1000.6mb 58f 55f
8:36pm 28 31 mph 1000.5mb 58f 55f
8:30pm 23 30 mph 1000.4mb 58f 56f
8:24pm 22 32 mph 1000.4mb 58f 55f
8:18pm 28 32 mph 1000.3mb 58f 56f
8:12pm 28 32 mph 1000.1mb 58f 56f
8:06pm 30 37 mph 999.9mb 58f 56f
8:00pm 31 36 mph 999.7mb 58f 56f
7:54pm 29 33 mph 999.5mb 58f 56f
7:48pm 29 33 mph - - -
7:42pm 29 34 mph 999.4mb 58f 56f